Terminal Aerodrome Forecast
Issued by NWS Lake Charles, LA

Home | Current Version | Previous Version | Text Only | Print | Product List | Glossary On
Versions: 1 2 3 4 5 6 7 8 9 10 11 12 13 14
000
FTUS44 KLCH 042341
TAFLFT
TAF
KLFT 042341Z 0500/0524 20003KT P6SM SCT060 BKN200
     FM051300 20005KT P6SM BKN035 OVC170
     FM052100 16005KT P6SM VCTS SCT022CB BKN035 OVC180=

USA.gov is the U.S. government's official web portal to all federal, state and local government web resources and services.